Financial Plaza, Florida
Current Conditions -  °F | °C
As of 8:53 PM on Thursday 20 Nov 2014 (Local Time) from KFLL Reporting Station
Overcast Overcast  
Wind Chill: 74°   Ceiling: 3500
Heat Index: 74°   Visibility: 10mi
Dew Point: 62°   Wind: 13mph
Humidity: 66%   Direction: 60°ENE
Pressure: 30.13"   Gusts: NA
Location:  26.1179°N, 80.1441°W
Report Text: KFLL 210153Z 06011KT 10SM BKN035 OVC250 23/17 A3013 RMK AO2 SLP204 T02330167
Loading
Personal Weather Stations






























Interactive Weather Map New forecast layout! Learn more

10-Day Weather Forecast

Advertisements
Track Severe Weather on mobile